createdAt,value
2018-04-19T00:03:41.269Z,5.43
2018-04-19T00:08:46.556Z,5.77
2018-04-19T00:13:49.114Z,5.93
2018-04-19T00:18:51.679Z,6.33
2018-04-19T00:23:54.248Z,6.17
2018-04-19T00:28:56.821Z,5.90
2018-04-19T00:34:00.860Z,5.93
2018-04-19T00:39:04.210Z,6.80
2018-04-19T00:44:06.764Z,6.67
2018-04-19T00:49:09.312Z,6.60
2018-04-19T00:54:12.577Z,5.70
2018-04-19T00:59:15.151Z,6.77
2018-04-19T01:04:17.993Z,9.10
2018-04-19T01:09:21.821Z,8.67
2018-04-19T01:14:25.703Z,8.10
2018-04-19T01:19:28.264Z,9.50
2018-04-19T01:24:30.845Z,9.30
2018-04-19T01:29:34.164Z,9.00
2018-04-19T01:34:37.668Z,10.93
2018-04-19T01:39:46.958Z,10.47
2018-04-19T01:44:49.654Z,9.30
2018-04-19T01:49:52.445Z,7.83
2018-04-19T01:54:55.791Z,10.13
2018-04-19T02:00:05.030Z,9.60
2018-04-19T02:05:07.598Z,8.87
2018-04-19T02:10:10.173Z,8.93
2018-04-19T02:15:12.816Z,10.57
2018-04-19T02:20:15.390Z,8.60
2018-04-19T02:25:18.312Z,9.00
2018-04-19T02:30:21.632Z,9.73
2018-04-19T02:35:24.221Z,8.63
2018-04-19T02:40:28.264Z,8.77
2018-04-19T02:45:31.609Z,8.00
2018-04-19T02:50:35.945Z,8.20
2018-04-19T02:55:38.523Z,8.30
2018-04-19T03:00:41.127Z,8.13
2018-04-19T03:05:44.201Z,8.30
2018-04-19T03:10:46.784Z,9.30
2018-04-19T03:15:50.611Z,9.83
2018-04-19T03:20:54.454Z,8.33
2018-04-19T03:25:57.019Z,8.80
2018-04-19T03:31:00.241Z,8.10
2018-04-19T03:36:02.818Z,7.77
2018-04-19T03:41:05.741Z,7.73
2018-04-19T03:46:08.300Z,7.83
2018-04-19T03:51:11.697Z,8.37
2018-04-19T03:56:15.682Z,8.20
2018-04-19T04:01:18.693Z,8.20
2018-04-19T04:06:23.011Z,8.80
2018-04-19T04:11:25.568Z,9.80
2018-04-19T04:16:40.828Z,10.00
2018-04-19T04:21:56.700Z,8.43
2018-04-19T04:26:59.601Z,8.60
2018-04-19T04:32:02.183Z,8.80
2018-04-19T04:37:05.507Z,9.10
2018-04-19T04:42:08.623Z,9.13
2018-04-19T04:47:11.475Z,11.27
2018-04-19T04:52:16.689Z,10.60
2018-04-19T04:57:19.712Z,9.10
2018-04-19T05:02:22.291Z,9.03
2018-04-19T05:07:26.061Z,11.10
2018-04-19T05:12:29.073Z,10.27
2018-04-19T05:17:32.260Z,9.20
2018-04-19T05:22:34.832Z,10.40
2018-04-19T05:27:37.401Z,10.60
2018-04-19T05:32:40.404Z,11.30
2018-04-19T05:37:42.984Z,11.30
2018-04-19T05:42:45.574Z,12.00
2018-04-19T05:47:48.160Z,11.30
2018-04-19T05:52:51.137Z,12.00
2018-04-19T05:57:54.457Z,12.77
2018-04-19T06:03:00.297Z,12.73
2018-04-19T06:08:10.017Z,14.47
2018-04-19T06:13:13.232Z,13.53
2018-04-19T06:18:15.877Z,12.50
2018-04-19T06:23:18.440Z,13.07
2018-04-19T06:28:21.093Z,16.10
2018-04-19T06:33:24.484Z,12.50
2018-04-19T06:38:27.730Z,12.43
2018-04-19T06:43:32.764Z,11.50
2018-04-19T06:48:35.715Z,11.13
2018-04-19T06:53:39.100Z,11.57
2018-04-19T06:58:42.465Z,11.30
2018-04-19T07:03:45.336Z,12.03
2018-04-19T07:08:48.596Z,11.43
2018-04-19T07:13:51.155Z,11.60
2018-04-19T07:18:53.731Z,11.87
2018-04-19T07:23:57.080Z,9.87
2018-04-19T07:28:59.746Z,9.10
2018-04-19T07:34:03.077Z,9.70
2018-04-19T07:39:06.453Z,9.83
2018-04-19T07:44:09.283Z,9.60
2018-04-19T07:49:12.629Z,10.80
2018-04-19T07:54:15.883Z,10.43
2018-04-19T07:59:18.912Z,15.23
2018-04-19T08:04:21.482Z,10.97
2018-04-19T08:09:24.073Z,10.90
2018-04-19T08:14:26.637Z,9.80
2018-04-19T08:19:30.232Z,10.20
2018-04-19T08:24:33.619Z,10.33
2018-04-19T08:29:38.609Z,12.80
2018-04-19T08:34:42.676Z,8.93
2018-04-19T08:39:51.442Z,9.57
2018-04-19T08:44:54.112Z,9.70
2018-04-19T08:49:56.687Z,9.13
2018-04-19T08:55:00.613Z,9.80
2018-04-19T09:00:03.944Z,8.50
2018-04-19T09:05:10.124Z,8.60
2018-04-19T09:10:13.309Z,10.17
2018-04-19T09:15:16.431Z,9.33
2018-04-19T09:20:19.782Z,8.73
2018-04-19T09:25:22.352Z,10.03
2018-04-19T09:30:26.235Z,10.07
2018-04-19T09:35:28.876Z,8.33
2018-04-19T09:40:32.194Z,9.17
2018-04-19T09:45:35.534Z,9.03
2018-04-19T09:50:38.612Z,10.40
2018-04-19T09:55:42.259Z,7.90
2018-04-19T10:00:45.630Z,7.40
2018-04-19T10:05:48.208Z,7.57
2018-04-19T10:10:51.057Z,6.70
2018-04-19T10:15:54.423Z,8.10
2018-04-19T10:20:57.556Z,6.53
2018-04-19T10:26:00.757Z,6.77
2018-04-19T10:31:03.320Z,6.03
2018-04-19T10:36:06.449Z,6.00
2018-04-19T10:41:09.022Z,6.97
2018-04-19T10:46:11.595Z,7.57
2018-04-19T10:51:15.755Z,7.07
2018-04-19T10:56:18.840Z,7.97
2018-04-19T11:01:22.175Z,7.40
2018-04-19T11:06:24.755Z,7.50
2018-04-19T11:11:28.910Z,7.33
2018-04-19T11:16:31.695Z,7.07
2018-04-19T11:21:49.664Z,6.50
2018-04-19T11:26:52.979Z,6.17
2018-04-19T11:31:56.652Z,7.67
2018-04-19T11:36:59.212Z,7.00
2018-04-19T11:42:02.229Z,7.70
2018-04-19T11:47:04.792Z,8.00
2018-04-19T11:52:08.125Z,8.37
2018-04-19T11:57:10.685Z,7.00
2018-04-19T12:02:14.004Z,6.50
2018-04-19T12:07:16.883Z,6.30
2018-04-19T12:12:19.472Z,6.60
2018-04-19T12:17:22.191Z,5.57
2018-04-19T12:22:25.292Z,7.30
2018-04-19T12:27:27.875Z,6.43
2018-04-19T12:32:30.777Z,6.50
2018-04-19T12:37:35.906Z,6.70
2018-04-19T12:42:38.446Z,7.00
2018-04-19T12:47:41.057Z,6.00
2018-04-19T12:52:44.089Z,7.10
2018-04-19T12:57:46.666Z,7.30
2018-04-19T13:07:59.023Z,5.90
2018-04-19T13:13:01.667Z,5.57
2018-04-19T13:18:05.215Z,4.90
2018-04-19T13:23:07.786Z,4.93
2018-04-19T13:28:11.121Z,4.70
2018-04-19T13:33:14.015Z,4.33
2018-04-19T13:38:16.630Z,4.70
2018-04-19T13:43:19.788Z,4.10
2018-04-19T13:48:22.352Z,3.90
2018-04-19T13:53:24.933Z,3.50
2018-04-19T13:58:28.122Z,3.53
2018-04-19T14:03:31.452Z,3.50
2018-04-19T14:08:34.075Z,3.07
2018-04-19T14:13:36.654Z,2.90
2018-04-19T14:18:39.249Z,2.80
2018-04-19T14:23:42.311Z,2.70
2018-04-19T14:28:45.481Z,2.83
2018-04-19T14:33:48.024Z,2.50
2018-04-19T14:38:51.040Z,2.20
2018-04-19T14:43:53.865Z,2.60
2018-04-19T14:48:57.192Z,2.40
2018-04-19T14:53:59.773Z,2.20
2018-04-19T14:59:03.601Z,2.67
2018-04-19T15:04:07.201Z,2.40
2018-04-19T15:09:09.771Z,2.20
2018-04-19T15:14:12.931Z,2.30
2018-04-19T15:19:16.265Z,2.03
2018-04-19T15:24:19.217Z,1.90
2018-04-19T15:29:22.328Z,2.33
2018-04-19T15:34:24.889Z,2.60
2018-04-19T15:39:27.474Z,3.10
2018-04-19T15:44:31.140Z,4.53
2018-04-19T15:49:34.503Z,4.87
2018-04-19T15:54:37.839Z,4.53
2018-04-19T15:59:40.423Z,4.90
2018-04-19T16:04:43.777Z,4.80
2018-04-19T16:09:46.362Z,4.97
2018-04-19T16:14:48.948Z,4.93
2018-04-19T16:19:51.520Z,3.93
2018-04-19T16:24:54.873Z,3.70
2018-04-19T16:29:57.445Z,3.37
2018-04-19T16:35:00.781Z,3.20
2018-04-19T16:40:03.343Z,2.83
2018-04-19T16:45:09.304Z,3.60
2018-04-19T16:50:12.273Z,3.17
2018-04-19T16:55:16.185Z,2.90
2018-04-19T17:00:18.747Z,3.57
2018-04-19T17:05:21.328Z,3.93
2018-04-19T17:10:23.900Z,3.33
2018-04-19T17:15:26.480Z,2.30
2018-04-19T17:20:29.045Z,2.60
2018-04-19T17:25:32.405Z,2.93
2018-04-19T17:30:34.980Z,2.50
2018-04-19T17:35:37.553Z,2.43
2018-04-19T17:40:40.130Z,3.20
2018-04-19T17:45:42.684Z,3.80
2018-04-19T17:50:45.253Z,4.57
2018-04-19T17:55:48.589Z,4.57
2018-04-19T18:00:51.172Z,12.50
2018-04-19T18:05:54.519Z,8.70
2018-04-19T18:10:57.072Z,17.07
2018-04-19T18:15:59.678Z,17.80
2018-04-19T18:21:03.003Z,11.73
2018-04-19T18:26:06.332Z,10.63
2018-04-19T18:31:08.908Z,7.40
2018-04-19T18:36:12.728Z,4.57
2018-04-19T18:41:15.299Z,4.43
2018-04-19T18:46:18.078Z,4.13
2018-04-19T18:51:21.562Z,4.40
2018-04-19T18:56:25.512Z,3.57
2018-04-19T19:01:28.071Z,3.60
2018-04-19T19:06:30.650Z,3.73
2018-04-19T19:11:33.623Z,3.27
2018-04-19T19:16:36.191Z,4.07
2018-04-19T19:21:40.352Z,3.90
2018-04-19T19:26:42.919Z,3.60
2018-04-19T19:31:46.227Z,3.40
2018-04-19T19:36:48.799Z,3.57
2018-04-19T19:41:51.568Z,3.13
2018-04-19T19:46:54.152Z,3.53
2018-04-19T19:51:56.704Z,4.07
2018-04-19T19:56:59.883Z,3.73
2018-04-19T20:02:03.559Z,3.83
2018-04-19T20:07:06.119Z,4.70
2018-04-19T20:12:09.196Z,4.53
2018-04-19T20:17:12.262Z,6.27
2018-04-19T20:22:14.840Z,6.30
2018-04-19T20:27:17.395Z,5.67
2018-04-19T20:32:21.102Z,6.13
2018-04-19T20:37:25.093Z,6.53
2018-04-19T20:42:27.998Z,6.27
2018-04-19T20:47:31.279Z,5.07
2018-04-19T20:52:34.210Z,5.70
2018-04-19T20:57:36.774Z,6.17
2018-04-19T21:02:39.384Z,4.30
2018-04-19T21:07:41.999Z,4.20
2018-04-19T21:12:45.821Z,4.37
2018-04-19T21:17:49.053Z,5.00
2018-04-19T21:22:52.896Z,5.47
2018-04-19T21:27:55.473Z,6.23
2018-04-19T21:32:58.056Z,5.90
2018-04-19T21:38:00.609Z,5.30
2018-04-19T21:43:05.272Z,5.13
2018-04-19T21:48:08.876Z,6.17
2018-04-19T21:53:12.213Z,6.47
2018-04-19T21:58:15.380Z,7.53
2018-04-19T22:03:17.952Z,6.87
2018-04-19T22:08:20.538Z,5.60
2018-04-19T22:13:23.100Z,6.80
2018-04-19T22:18:26.876Z,6.67
2018-04-19T22:23:30.065Z,5.60
2018-04-19T22:28:36.007Z,6.03
2018-04-19T22:33:38.571Z,5.70
2018-04-19T22:38:41.728Z,5.97
2018-04-19T22:43:45.364Z,5.73
2018-04-19T22:48:48.393Z,5.40
2018-04-19T22:53:51.882Z,5.67
2018-04-19T22:58:55.206Z,5.67
2018-04-19T23:03:57.831Z,5.53
2018-04-19T23:09:00.837Z,5.60
2018-04-19T23:14:03.412Z,6.10
2018-04-19T23:19:07.325Z,6.90
2018-04-19T23:24:10.664Z,5.47
2018-04-19T23:29:13.237Z,6.00
2018-04-19T23:39:25.823Z,5.53
2018-04-19T23:44:29.732Z,5.53
2018-04-19T23:49:32.481Z,5.30
2018-04-19T23:54:35.055Z,5.80
2018-04-19T23:59:37.869Z,5.63
